Time;durP1;ratioP1;P1;durP2;ratioP2;P2;SDS_P1;SDS_P2;PMS_P1;PMS_P2;Temp;Humidity;BMP_temperature;BMP_pressure;BME280_temperature;BME280_humidity;BME280_pressure;Samples;Min_cycle;Max_cycle;Signal;HPM_P1;HPM_P2
2021/11/28 00:00:18;;;;;;;14.77;11.07;;;4.10;95.20;;;;;;2090126;28;20036;-92
2021/11/28 00:01:20;;;;;;;12.95;9.68;;;4.20;95.20;;;;;;2080879;28;20038;-92
2021/11/28 00:02:22;;;;;;;14.73;11.15;;;4.20;95.30;;;;;;2081273;28;20068;-91
2021/11/28 00:03:23;;;;;;;13.82;10.18;;;4.20;95.30;;;;;;2080270;28;20401;-91
2021/11/28 00:04:23;;;;;;;15.60;10.77;;;4.20;95.30;;;;;;2071842;28;20058;-89
2021/11/28 00:05:26;;;;;;;14.48;10.68;;;4.20;95.30;;;;;;2071594;28;20022;-91
2021/11/28 00:06:28;;;;;;;14.35;10.70;;;4.20;95.30;;;;;;2069564;28;20019;-91
2021/11/28 00:11:21;;;;;;;14.73;9.98;;;4.20;95.30;;;;;;2073260;28;20428;-90
2021/11/28 00:13:32;;;;;;;13.38;9.80;;;4.30;95.30;;;;;;2075123;28;20420;-90
2021/11/28 00:14:33;;;;;;;13.43;9.40;;;4.30;95.30;;;;;;2072377;28;20026;-91
2021/11/28 00:15:35;;;;;;;13.73;10.15;;;4.30;95.30;;;;;;2065711;28;20181;-90
2021/11/28 00:16:35;;;;;;;13.60;9.82;;;4.30;95.30;;;;;;2057445;28;20042;-91
2021/11/28 00:17:37;;;;;;;13.80;9.90;;;4.30;95.20;;;;;;2057198;28;20082;-90
2021/11/28 00:18:37;;;;;;;14.40;10.43;;;4.30;95.20;;;;;;2060837;28;20026;-90
2021/11/28 00:19:41;;;;;;;13.52;9.85;;;4.30;95.20;;;;;;2058963;28;20066;-90
2021/11/28 00:20:42;;;;;;;14.30;10.00;;;4.30;95.20;;;;;;2050031;28;20120;-91
2021/11/28 00:21:43;;;;;;;13.80;9.85;;;4.30;95.20;;;;;;2049870;28;20691;-91
2021/11/28 00:22:44;;;;;;;14.43;10.07;;;4.30;95.30;;;;;;2048733;28;20094;-91
2021/11/28 00:23:45;;;;;;;13.63;10.02;;;4.30;95.20;;;;;;2058123;28;20448;-91
2021/11/28 00:24:45;;;;;;;13.07;9.43;;;4.30;95.20;;;;;;2075204;28;20049;-91
2021/11/28 00:25:46;;;;;;;13.90;10.13;;;4.40;95.30;;;;;;2065349;28;20110;-91
2021/11/28 00:26:48;;;;;;;13.52;9.32;;;4.40;95.30;;;;;;2048684;28;20122;-91
2021/11/28 00:27:50;;;;;;;13.85;9.85;;;4.40;95.20;;;;;;2042651;28;20474;-91
2021/11/28 00:28:51;;;;;;;15.80;10.10;;;4.40;95.20;;;;;;2051540;28;20500;-91
2021/11/28 00:29:52;;;;;;;13.85;10.23;;;4.40;95.20;;;;;;2046211;28;20031;-91
2021/11/28 00:30:54;;;;;;;13.07;9.35;;;4.30;95.20;;;;;;2049867;28;20025;-91
2021/11/28 00:31:57;;;;;;;14.27;10.15;;;4.30;95.20;;;;;;2056749;28;20031;-91
2021/11/28 00:33:00;;;;;;;14.65;9.60;;;4.30;95.20;;;;;;2057406;28;20449;-91
2021/11/28 00:34:01;;;;;;;13.73;10.05;;;4.30;95.30;;;;;;2050054;28;20034;-90
2021/11/28 00:35:01;;;;;;;13.98;9.73;;;4.30;95.30;;;;;;2073805;28;20026;-91
2021/11/28 00:36:03;;;;;;;15.43;10.32;;;4.30;95.30;;;;;;2064303;28;20038;-91
2021/11/28 00:37:03;;;;;;;15.63;10.27;;;4.30;95.30;;;;;;2048985;28;20058;-90
2021/11/28 00:38:04;;;;;;;14.35;10.10;;;4.40;95.30;;;;;;2049018;29;20050;-90
2021/11/28 00:39:05;;;;;;;13.95;9.90;;;4.40;95.30;;;;;;2056703;28;20449;-90
2021/11/28 00:40:06;;;;;;;13.85;9.60;;;4.40;95.30;;;;;;2076879;28;20054;-90
2021/11/28 00:41:07;;;;;;;13.77;9.73;;;4.40;95.30;;;;;;2065941;28;20022;-90
2021/11/28 00:42:08;;;;;;;15.15;10.75;;;4.40;95.30;;;;;;2057415;28;20113;-90
2021/11/28 00:43:09;;;;;;;13.95;10.35;;;4.40;95.30;;;;;;2056607;28;20042;-91
2021/11/28 00:44:09;;;;;;;14.90;10.65;;;4.30;95.20;;;;;;2043063;28;20082;-90
2021/11/28 00:45:10;;;;;;;15.77;10.55;;;4.30;95.20;;;;;;2052467;28;20070;-91
2021/11/28 00:46:11;;;;;;;15.23;11.07;;;4.30;95.20;;;;;;2057045;28;20062;-90
2021/11/28 00:47:12;;;;;;;15.70;10.65;;;4.30;95.50;;;;;;2061034;28;20060;-92
2021/11/28 00:48:13;;;;;;;15.13;11.00;;;4.30;95.30;;;;;;2065183;28;20049;-92
2021/11/28 00:49:21;;;;;;;17.02;10.63;;;4.30;95.30;;;;;;2064168;28;20026;-90
2021/11/28 00:51:33;;;;;;;15.52;10.70;;;4.30;95.30;;;;;;2053000;28;20039;-87
2021/11/28 00:52:35;;;;;;;15.80;10.63;;;4.30;95.30;;;;;;2057609;28;20027;-88
2021/11/28 00:53:36;;;;;;;16.30;11.38;;;4.30;95.60;;;;;;2057310;28;20035;-87
2021/11/28 00:54:36;;;;;;;14.75;10.50;;;4.30;95.30;;;;;;2063272;28;20019;-87
2021/11/28 00:55:37;;;;;;;16.17;10.70;;;4.30;95.30;;;;;;2055009;29;20055;-87
2021/11/28 00:56:38;;;;;;;15.27;10.75;;;4.30;95.30;;;;;;2053226;28;20039;-88
2021/11/28 00:57:39;;;;;;;14.98;10.77;;;4.30;95.30;;;;;;2047424;29;20062;-87
2021/11/28 00:58:39;;;;;;;16.33;11.10;;;4.30;95.30;;;;;;2059037;28;20027;-91
2021/11/28 00:59:40;;;;;;;16.00;11.15;;;4.30;95.30;;;;;;2073043;28;20491;-91
2021/11/28 01:00:43;;;;;;;15.80;11.52;;;4.30;95.30;;;;;;2071930;28;20041;-90
2021/11/28 01:01:44;;;;;;;16.92;11.23;;;4.30;95.30;;;;;;2072569;28;20022;-90
2021/11/28 01:02:44;;;;;;;17.40;11.55;;;4.30;95.30;;;;;;2072079;28;20026;-89
2021/11/28 01:03:45;;;;;;;16.50;11.93;;;4.30;95.30;;;;;;2081311;28;20018;-90
2021/11/28 01:04:47;;;;;;;15.93;11.07;;;4.30;95.30;;;;;;2069523;28;20140;-90
2021/11/28 01:05:49;;;;;;;16.55;11.60;;;4.30;95.30;;;;;;2064462;28;20033;-91
2021/11/28 01:06:50;;;;;;;16.55;11.07;;;4.30;95.30;;;;;;2056910;28;20374;-91
2021/11/28 01:07:50;;;;;;;15.40;10.70;;;4.30;95.30;;;;;;2056304;28;20041;-91
2021/11/28 01:08:51;;;;;;;16.60;11.07;;;4.30;95.30;;;;;;2064712;28;20428;-90
2021/11/28 01:09:53;;;;;;;16.88;11.27;;;4.30;95.30;;;;;;2063273;28;20556;-92
2021/11/28 01:10:54;;;;;;;16.17;11.48;;;4.30;95.30;;;;;;2065121;28;20042;-90
2021/11/28 01:11:54;;;;;;;17.02;11.20;;;4.30;95.30;;;;;;2073087;28;20396;-90
2021/11/28 01:12:56;;;;;;;16.25;11.50;;;4.30;95.30;;;;;;2072918;28;20381;-90
2021/11/28 01:13:56;;;;;;;15.77;11.15;;;4.30;95.60;;;;;;2064599;28;20038;-91
2021/11/28 01:14:57;;;;;;;16.55;11.30;;;4.30;95.30;;;;;;2048803;28;20039;-91
2021/11/28 01:15:58;;;;;;;16.50;11.73;;;4.30;95.30;;;;;;2051132;28;20047;-90
2021/11/28 01:16:58;;;;;;;15.90;11.75;;;4.30;95.30;;;;;;2072457;28;20124;-90
2021/11/28 01:17:59;;;;;;;17.90;11.73;;;4.30;95.30;;;;;;2060371;28;20113;-92
2021/11/28 01:19:00;;;;;;;18.38;11.82;;;4.30;95.30;;;;;;2047542;29;20024;-91
2021/11/28 01:20:03;;;;;;;16.67;11.90;;;4.30;95.30;;;;;;2063777;28;20034;-91
2021/11/28 01:21:04;;;;;;;17.27;11.80;;;4.30;95.30;;;;;;2072174;28;20029;-91
2021/11/28 01:22:07;;;;;;;16.58;11.90;;;4.20;95.30;;;;;;2056944;28;20073;-90
2021/11/28 01:23:08;;;;;;;17.52;12.40;;;4.20;95.30;;;;;;2057670;28;20027;-91
2021/11/28 01:24:08;;;;;;;17.30;12.35;;;4.20;95.30;;;;;;2056340;28;20039;-90
2021/11/28 01:25:12;;;;;;;17.15;12.10;;;4.20;95.30;;;;;;2046728;28;20031;-90
2021/11/28 01:26:13;;;;;;;18.23;12.55;;;4.20;95.30;;;;;;2058298;28;20163;-91
2021/11/28 01:27:15;;;;;;;17.65;12.18;;;4.20;95.30;;;;;;2061369;28;20050;-90
2021/11/28 01:28:16;;;;;;;17.10;11.90;;;4.20;95.30;;;;;;2049047;28;20093;-90
2021/11/28 01:29:17;;;;;;;16.85;11.85;;;4.20;95.30;;;;;;2051998;28;20023;-90
2021/11/28 01:30:17;;;;;;;16.70;12.32;;;4.20;95.30;;;;;;2056979;28;20457;-90
2021/11/28 01:31:18;;;;;;;18.48;12.40;;;4.20;95.30;;;;;;2053285;28;20027;-90
2021/11/28 01:32:19;;;;;;;16.88;11.57;;;4.20;95.30;;;;;;2056957;28;20042;-90
2021/11/28 01:33:19;;;;;;;17.13;11.25;;;4.20;95.30;;;;;;2061041;28;20018;-91
2021/11/28 01:34:20;;;;;;;17.00;12.05;;;4.20;95.30;;;;;;2072696;28;20201;-89
2021/11/28 01:35:21;;;;;;;16.60;10.98;;;4.20;95.50;;;;;;2054586;28;20378;-90
2021/11/28 01:36:22;;;;;;;18.35;11.80;;;4.20;95.20;;;;;;2047439;28;20437;-91
2021/11/28 01:37:23;;;;;;;16.58;11.95;;;4.20;95.20;;;;;;2051199;28;20033;-90
2021/11/28 01:38:23;;;;;;;15.95;11.18;;;4.20;95.20;;;;;;2073123;28;20033;-91
2021/11/28 01:39:24;;;;;;;17.73;12.00;;;4.20;95.30;;;;;;2065773;28;20034;-92
2021/11/28 01:40:25;;;;;;;16.48;11.93;;;4.20;95.30;;;;;;2064071;28;20042;-90
2021/11/28 01:41:26;;;;;;;17.30;12.25;;;4.20;95.30;;;;;;2080834;28;20116;-92
2021/11/28 01:42:50;;;;;;;17.00;11.85;;;4.20;95.30;;;;;;2072987;28;20026;-91
2021/11/28 01:43:52;;;;;;;16.85;11.90;;;4.20;95.30;;;;;;2067491;28;20037;-91
2021/11/28 01:44:53;;;;;;;16.42;10.95;;;4.20;95.30;;;;;;2058492;28;20029;-90
2021/11/28 01:45:54;;;;;;;16.35;11.38;;;4.20;95.30;;;;;;2048776;28;20027;-91
2021/11/28 01:46:55;;;;;;;17.38;12.05;;;4.20;95.20;;;;;;2049458;28;20030;-90
2021/11/28 01:47:58;;;;;;;16.30;11.43;;;4.20;95.20;;;;;;2064872;28;20049;-90
2021/11/28 01:49:00;;;;;;;15.02;10.75;;;4.20;95.20;;;;;;2073030;28;20061;-90
2021/11/28 01:50:00;;;;;;;16.17;11.35;;;4.20;95.20;;;;;;2081185;28;20079;-90
2021/11/28 01:51:03;;;;;;;17.45;12.18;;;4.20;95.30;;;;;;2080572;28;20060;-90
2021/11/28 01:52:04;;;;;;;16.38;11.80;;;4.20;95.30;;;;;;2082783;28;20029;-90
2021/11/28 01:53:08;;;;;;;17.63;11.77;;;4.20;95.30;;;;;;2065971;28;20112;-91
2021/11/28 01:54:13;;;;;;;16.25;11.57;;;4.20;95.30;;;;;;2058356;28;20035;-91
2021/11/28 01:55:19;;;;;;;16.35;11.32;;;4.20;95.30;;;;;;2075065;28;20058;-91
2021/11/28 01:56:22;;;;;;;17.30;11.90;;;4.20;95.30;;;;;;2074327;28;20034;-90
2021/11/28 01:57:23;;;;;;;17.05;11.77;;;4.20;95.30;;;;;;2058930;28;20074;-90
2021/11/28 01:58:24;;;;;;;16.50;11.70;;;4.20;95.30;;;;;;2066190;28;20120;-90
2021/11/28 01:59:25;;;;;;;15.70;11.40;;;4.20;95.30;;;;;;2073925;28;20030;-90
2021/11/28 02:00:29;;;;;;;18.40;12.45;;;4.20;95.30;;;;;;2074137;28;20038;-90
2021/11/28 02:01:30;;;;;;;17.38;11.85;;;4.20;95.30;;;;;;2074444;28;20022;-91
2021/11/28 02:02:32;;;;;;;15.25;10.70;;;4.20;95.30;;;;;;2069543;28;20097;-90
2021/11/28 02:03:37;;;;;;;15.88;11.50;;;4.20;95.30;;;;;;2066678;28;20030;-91
2021/11/28 02:04:38;;;;;;;17.95;11.60;;;4.20;95.30;;;;;;2084086;28;20072;-90
2021/11/28 02:05:46;;;;;;;16.88;11.43;;;4.20;95.60;;;;;;2082140;28;20053;-89
2021/11/28 02:06:47;;;;;;;15.07;10.73;;;4.20;95.30;;;;;;2076570;28;20065;-91
2021/11/28 02:07:48;;;;;;;16.25;11.30;;;4.20;95.30;;;;;;2074432;28;20029;-89
2021/11/28 02:08:49;;;;;;;17.83;11.18;;;4.20;95.30;;;;;;2065411;28;20034;-91
2021/11/28 02:09:51;;;;;;;16.33;10.90;;;4.20;95.30;;;;;;2066392;28;20450;-91
2021/11/28 02:10:52;;;;;;;15.55;11.15;;;4.20;95.40;;;;;;2065750;28;20030;-90
2021/11/28 02:11:53;;;;;;;16.38;11.48;;;4.20;95.30;;;;;;2082133;28;20021;-90
2021/11/28 02:12:54;;;;;;;15.38;10.95;;;4.20;95.30;;;;;;2090584;28;20017;-89
2021/11/28 02:13:55;;;;;;;15.80;10.88;;;4.20;95.30;;;;;;2074440;28;20397;-90
2021/11/28 02:14:59;;;;;;;15.68;11.35;;;4.20;95.30;;;;;;2065782;28;20049;-89
2021/11/28 02:16:00;;;;;;;16.15;10.98;;;4.20;95.30;;;;;;2065971;28;20043;-90
2021/11/28 02:17:02;;;;;;;17.23;10.90;;;4.20;95.30;;;;;;2081957;28;20014;-91
2021/11/28 02:18:04;;;;;;;15.98;10.70;;;4.30;95.30;;;;;;2082257;28;20021;-91
2021/11/28 02:19:05;;;;;;;16.95;11.55;;;4.30;95.30;;;;;;2081592;28;20029;-89
2021/11/28 02:20:07;;;;;;;17.17;11.45;;;4.20;95.30;;;;;;2084202;28;20081;-88
2021/11/28 02:21:11;;;;;;;16.75;10.80;;;4.20;95.30;;;;;;2082548;28;20084;-90
2021/11/28 02:22:11;;;;;;;15.52;10.75;;;4.20;95.30;;;;;;2082587;28;20021;-90
2021/11/28 02:23:13;;;;;;;15.32;10.85;;;4.30;95.30;;;;;;2090413;28;20057;-90
2021/11/28 02:24:13;;;;;;;14.18;10.45;;;4.20;95.20;;;;;;2090097;28;20029;-90
2021/11/28 02:25:14;;;;;;;15.23;10.77;;;4.20;95.20;;;;;;2074616;28;20033;-91
2021/11/28 02:26:15;;;;;;;16.65;11.13;;;4.20;95.50;;;;;;2082441;28;20067;-90
2021/11/28 02:27:17;;;;;;;15.95;11.40;;;4.20;95.30;;;;;;2067937;28;20080;-90
2021/11/28 02:28:18;;;;;;;15.07;10.70;;;4.20;95.30;;;;;;2069678;28;20284;-90
2021/11/28 02:29:18;;;;;;;15.93;11.10;;;4.20;95.30;;;;;;2081428;28;20029;-90
2021/11/28 02:30:19;;;;;;;17.00;11.65;;;4.20;95.30;;;;;;2074861;28;20072;-90
2021/11/28 02:31:20;;;;;;;16.42;11.70;;;4.20;95.30;;;;;;2071662;28;20095;-90
2021/11/28 02:32:21;;;;;;;16.48;11.30;;;4.20;95.30;;;;;;2080553;28;20515;-90
2021/11/28 02:33:22;;;;;;;15.27;11.07;;;4.20;95.30;;;;;;2075576;28;20075;-91
2021/11/28 02:34:23;;;;;;;17.40;12.00;;;4.20;95.30;;;;;;2072089;28;20026;-90
2021/11/28 02:35:26;;;;;;;16.35;11.68;;;4.20;95.30;;;;;;2075419;28;20022;-88
2021/11/28 02:36:27;;;;;;;19.23;12.73;;;4.20;95.30;;;;;;2089547;28;20053;-87
2021/11/28 02:37:27;;;;;;;17.33;12.55;;;4.10;95.20;;;;;;2098573;28;20073;-87
2021/11/28 02:38:28;;;;;;;16.05;11.35;;;4.10;95.30;;;;;;2098284;28;20078;-88
2021/11/28 02:39:29;;;;;;;17.67;11.90;;;4.10;95.30;;;;;;2097425;28;20037;-87
2021/11/28 02:40:31;;;;;;;16.13;11.45;;;4.10;95.30;;;;;;2098315;28;20033;-87
2021/11/28 02:41:33;;;;;;;17.30;11.70;;;4.20;95.30;;;;;;2090274;28;20037;-87
2021/11/28 02:42:34;;;;;;;18.45;12.50;;;4.10;95.30;;;;;;2098933;28;20030;-87
2021/11/28 02:43:34;;;;;;;15.63;10.82;;;4.20;95.30;;;;;;2097545;28;20032;-87
2021/11/28 02:44:35;;;;;;;17.60;11.75;;;4.20;95.30;;;;;;2095951;28;20025;-88
2021/11/28 02:45:37;;;;;;;17.27;11.82;;;4.20;95.30;;;;;;2078610;28;20034;-86
2021/11/28 02:46:38;;;;;;;17.48;11.95;;;4.20;95.30;;;;;;2081438;28;20056;-87
2021/11/28 02:47:39;;;;;;;16.42;11.80;;;4.20;95.30;;;;;;2079627;28;20022;-90
2021/11/28 02:48:40;;;;;;;16.77;10.82;;;4.20;95.30;;;;;;2073044;28;20041;-89
2021/11/28 02:49:41;;;;;;;17.50;12.25;;;4.20;95.30;;;;;;2075985;28;20580;-91
2021/11/28 02:50:43;;;;;;;16.50;11.18;;;4.20;95.30;;;;;;2075909;28;20030;-90
2021/11/28 02:51:44;;;;;;;15.98;11.43;;;4.20;95.30;;;;;;2074199;28;20034;-91
2021/11/28 02:52:56;;;;;;;16.63;11.55;;;4.20;95.30;;;;;;2080372;28;20025;-91
2021/11/28 02:53:57;;;;;;;15.45;10.48;;;4.20;95.30;;;;;;2080747;28;20040;-90
2021/11/28 02:54:58;;;;;;;17.70;11.98;;;4.20;95.30;;;;;;2074110;28;20033;-91
2021/11/28 02:56:01;;;;;;;16.35;11.43;;;4.20;95.30;;;;;;2081027;28;20096;-91
2021/11/28 02:57:02;;;;;;;18.10;11.50;;;4.20;95.50;;;;;;2074090;28;20026;-90
2021/11/28 02:58:04;;;;;;;19.45;11.70;;;4.20;95.30;;;;;;2057986;28;20039;-90
2021/11/28 02:59:05;;;;;;;17.15;12.13;;;4.20;95.30;;;;;;2066139;28;20077;-91
2021/11/28 03:00:07;;;;;;;14.77;10.35;;;4.20;95.30;;;;;;2066344;28;20126;-90
2021/11/28 03:01:14;;;;;;;17.42;11.48;;;4.20;95.30;;;;;;2049985;28;20040;-90
2021/11/28 03:02:15;;;;;;;17.13;11.23;;;4.20;95.30;;;;;;2068391;28;20018;-90
2021/11/28 03:03:15;;;;;;;17.38;11.77;;;4.20;95.30;;;;;;2069650;28;20100;-90
2021/11/28 03:04:17;;;;;;;18.50;11.95;;;4.20;95.30;;;;;;2069986;28;20121;-90
2021/11/28 03:05:18;;;;;;;17.77;11.85;;;4.20;95.30;;;;;;2067673;28;20030;-90
2021/11/28 03:06:19;;;;;;;17.35;11.68;;;4.20;95.20;;;;;;2082160;28;20413;-90
2021/11/28 03:07:20;;;;;;;20.00;12.35;;;4.20;95.20;;;;;;2084707;28;20026;-89
2021/11/28 03:08:21;;;;;;;17.52;11.32;;;4.20;95.20;;;;;;2090516;28;20582;-89
2021/11/28 03:09:22;;;;;;;17.05;11.75;;;4.20;95.20;;;;;;2081670;28;20033;-89
2021/11/28 03:10:28;;;;;;;17.60;11.55;;;4.20;95.20;;;;;;2081931;28;20030;-90
2021/11/28 03:11:29;;;;;;;16.95;11.23;;;4.20;95.20;;;;;;2089764;28;20032;-90
2021/11/28 03:12:29;;;;;;;18.17;11.32;;;4.20;95.20;;;;;;2082607;28;20071;-91
2021/11/28 03:13:33;;;;;;;18.17;11.80;;;4.20;95.20;;;;;;2072784;28;20135;-90
2021/11/28 03:14:34;;;;;;;17.73;11.32;;;4.20;95.20;;;;;;2083430;28;20026;-88
2021/11/28 03:15:36;;;;;;;19.38;11.65;;;4.20;95.20;;;;;;2082060;28;20033;-89
2021/11/28 03:16:36;;;;;;;16.38;11.43;;;4.20;95.20;;;;;;2086258;28;20032;-90
2021/11/28 03:17:37;;;;;;;16.95;11.30;;;4.20;95.20;;;;;;2104052;28;20020;-90
2021/11/28 03:18:38;;;;;;;18.45;11.95;;;4.20;95.20;;;;;;2090650;28;20037;-89
2021/11/28 03:19:40;;;;;;;18.23;11.50;;;4.20;95.50;;;;;;2081216;28;20018;-89
2021/11/28 03:20:41;;;;;;;17.25;11.50;;;4.20;95.20;;;;;;2073813;28;20491;-89
2021/11/28 03:21:42;;;;;;;16.42;10.70;;;4.20;95.20;;;;;;2074864;28;20041;-90
2021/11/28 03:22:51;;;;;;;17.48;11.02;;;4.20;95.20;;;;;;2089689;28;20104;-90
2021/11/28 03:23:55;;;;;;;16.30;11.15;;;4.20;95.20;;;;;;2090795;28;20453;-90
2021/11/28 03:24:55;;;;;;;16.33;11.13;;;4.20;95.20;;;;;;2089785;28;20025;-90
2021/11/28 03:26:22;;;;;;;15.65;10.57;;;4.20;95.20;;;;;;2081685;28;20069;-90
2021/11/28 03:27:22;;;;;;;17.20;10.88;;;4.20;95.20;;;;;;2083168;28;20108;-91
2021/11/28 03:28:23;;;;;;;18.52;11.25;;;4.20;95.20;;;;;;2081773;28;20040;-91
2021/11/28 03:29:25;;;;;;;17.75;11.05;;;4.20;95.20;;;;;;2074100;28;20029;-90
2021/11/28 03:30:25;;;;;;;18.17;11.45;;;4.20;95.20;;;;;;2090161;28;20025;-90
2021/11/28 03:31:30;;;;;;;16.48;10.43;;;4.20;95.20;;;;;;2081864;28;20045;-90
2021/11/28 03:32:30;;;;;;;16.52;10.93;;;4.20;95.20;;;;;;2081981;28;20021;-90
2021/11/28 03:33:32;;;;;;;17.13;11.18;;;4.20;95.20;;;;;;2082000;28;20056;-90
2021/11/28 03:34:33;;;;;;;18.73;11.25;;;4.20;95.20;;;;;;2081726;28;20021;-89
2021/11/28 03:35:33;;;;;;;17.40;10.65;;;4.20;95.20;;;;;;2073503;28;20216;-90
2021/11/28 03:36:40;;;;;;;16.25;11.23;;;4.20;95.20;;;;;;2078425;28;20037;-89
2021/11/28 03:37:41;;;;;;;17.38;11.13;;;4.20;95.20;;;;;;2088692;28;20491;-91
2021/11/28 03:38:43;;;;;;;18.15;11.40;;;4.20;95.20;;;;;;2080005;28;20029;-89
2021/11/28 03:39:45;;;;;;;17.23;11.57;;;4.20;95.50;;;;;;2073162;28;20030;-90
2021/11/28 03:40:45;;;;;;;18.25;11.25;;;4.20;95.20;;;;;;2080967;28;20029;-90
2021/11/28 03:41:49;;;;;;;19.25;11.60;;;4.10;95.20;;;;;;2073678;28;20026;-90
2021/11/28 03:42:49;;;;;;;18.45;10.88;;;4.10;95.20;;;;;;2078778;28;20139;-90
2021/11/28 03:43:53;;;;;;;18.20;11.13;;;4.10;95.20;;;;;;2087857;28;20029;-90
2021/11/28 03:44:54;;;;;;;16.50;10.68;;;4.10;95.20;;;;;;2085893;28;20118;-90
2021/11/28 03:45:55;;;;;;;17.80;11.18;;;4.10;95.30;;;;;;2085800;28;20495;-89
2021/11/28 03:46:56;;;;;;;17.33;11.38;;;4.20;95.30;;;;;;2073101;28;20066;-90
2021/11/28 03:47:57;;;;;;;17.83;11.90;;;4.10;95.20;;;;;;2079258;28;20029;-89
2021/11/28 03:48:59;;;;;;;16.13;11.20;;;4.10;95.20;;;;;;2073209;28;20072;-90
2021/11/28 03:50:00;;;;;;;17.80;11.23;;;4.10;95.20;;;;;;2082534;28;20037;-90
2021/11/28 03:51:01;;;;;;;16.38;10.45;;;4.10;95.20;;;;;;2072995;28;20045;-89
2021/11/28 03:52:03;;;;;;;17.42;11.38;;;4.10;95.20;;;;;;2081559;28;20132;-90
2021/11/28 03:53:04;;;;;;;19.70;11.65;;;4.10;95.20;;;;;;2092863;28;20024;-88
2021/11/28 03:54:06;;;;;;;18.38;11.32;;;4.10;95.20;;;;;;2091402;28;20041;-89
2021/11/28 03:55:08;;;;;;;17.67;11.27;;;4.20;95.20;;;;;;2081781;28;20076;-89
2021/11/28 03:56:09;;;;;;;17.10;11.25;;;4.20;95.20;;;;;;2072946;28;20037;-89
2021/11/28 03:57:10;;;;;;;16.85;10.63;;;4.20;95.20;;;;;;2061251;28;20031;-89
2021/11/28 03:58:11;;;;;;;18.42;11.30;;;4.20;95.20;;;;;;2066855;28;20058;-89
2021/11/28 03:59:11;;;;;;;17.45;11.13;;;4.20;95.20;;;;;;2079216;28;20076;-89
2021/11/28 04:00:13;;;;;;;17.25;11.18;;;4.20;95.20;;;;;;2071223;28;20467;-89
2021/11/28 04:01:16;;;;;;;18.33;11.23;;;4.20;95.20;;;;;;2073775;28;20030;-90
2021/11/28 04:02:18;;;;;;;18.50;11.50;;;4.20;95.40;;;;;;2081813;28;20029;-91
2021/11/28 04:03:19;;;;;;;16.58;11.40;;;4.10;95.20;;;;;;2090179;28;20035;-90
2021/11/28 04:04:21;;;;;;;17.98;11.80;;;4.10;95.10;;;;;;2081354;28;20034;-90
2021/11/28 04:05:22;;;;;;;18.05;11.30;;;4.20;95.20;;;;;;2073636;28;20046;-90
2021/11/28 04:06:23;;;;;;;17.25;11.18;;;4.10;95.10;;;;;;2088014;28;20025;-90
2021/11/28 04:07:23;;;;;;;19.35;11.13;;;4.10;95.10;;;;;;2081964;28;20029;-90
2021/11/28 04:08:24;;;;;;;19.75;11.95;;;4.10;95.20;;;;;;2063552;28;20026;-90
2021/11/28 04:09:25;;;;;;;19.00;11.43;;;4.10;95.20;;;;;;2073929;28;20075;-90
2021/11/28 04:10:26;;;;;;;20.98;12.13;;;4.10;95.20;;;;;;2069828;28;20035;-90
2021/11/28 04:11:26;;;;;;;17.48;10.73;;;4.10;95.20;;;;;;2072221;28;20036;-91
2021/11/28 04:12:27;;;;;;;15.80;10.85;;;4.10;95.20;;;;;;2081567;28;20029;-90
2021/11/28 04:13:28;;;;;;;18.83;11.55;;;4.10;95.20;;;;;;2088106;28;20166;-91
2021/11/28 04:14:28;;;;;;;17.73;10.55;;;4.10;95.20;;;;;;2081368;28;20375;-91
2021/11/28 04:15:30;;;;;;;18.35;11.70;;;4.10;95.20;;;;;;2081309;28;20564;-91
2021/11/28 04:16:31;;;;;;;16.45;10.52;;;4.10;95.20;;;;;;2079560;28;20391;-90
2021/11/28 04:17:32;;;;;;;16.85;10.73;;;4.10;95.20;;;;;;2089610;28;20032;-90
2021/11/28 04:18:33;;;;;;;18.77;11.43;;;4.10;95.20;;;;;;2081019;28;20029;-90
2021/11/28 04:19:33;;;;;;;17.23;11.18;;;4.20;95.20;;;;;;2081898;28;20120;-90
2021/11/28 04:20:34;;;;;;;16.80;10.93;;;4.10;95.20;;;;;;2072803;28;20030;-90
2021/11/28 04:21:37;;;;;;;18.77;11.63;;;4.10;95.20;;;;;;2081137;28;20030;-90
2021/11/28 04:22:37;;;;;;;16.98;10.65;;;4.20;95.20;;;;;;2073332;28;20099;-91
2021/11/28 04:23:39;;;;;;;17.48;11.65;;;4.10;95.10;;;;;;2065718;28;20022;-90
2021/11/28 04:24:40;;;;;;;19.67;11.55;;;4.10;95.10;;;;;;2074178;28;20487;-90
2021/11/28 04:25:41;;;;;;;17.10;10.82;;;4.20;95.20;;;;;;2080606;28;20534;-91
2021/11/28 04:26:41;;;;;;;19.70;11.73;;;4.10;95.10;;;;;;2089782;28;20029;-90
2021/11/28 04:27:42;;;;;;;17.70;11.50;;;4.10;95.10;;;;;;2078619;28;20483;-90
2021/11/28 04:28:43;;;;;;;15.63;10.43;;;4.10;95.10;;;;;;2073252;28;20121;-90
2021/11/28 04:29:44;;;;;;;18.52;11.70;;;4.10;95.10;;;;;;2076646;28;20076;-86
2021/11/28 04:30:45;;;;;;;17.38;11.15;;;4.10;95.10;;;;;;2073203;28;20030;-87
2021/11/28 04:31:47;;;;;;;17.58;10.73;;;4.10;95.10;;;;;;2087310;28;20022;-85
2021/11/28 04:32:48;;;;;;;17.80;11.13;;;4.10;95.20;;;;;;2096437;28;20037;-85
2021/11/28 04:33:49;;;;;;;17.27;10.95;;;4.10;95.10;;;;;;2095753;28;20025;-85
2021/11/28 04:34:49;;;;;;;16.52;11.00;;;4.10;95.20;;;;;;2095318;28;20060;-86
2021/11/28 04:35:50;;;;;;;17.58;11.52;;;4.10;95.20;;;;;;2087729;28;20047;-86
2021/11/28 04:36:51;;;;;;;16.90;10.73;;;4.10;95.40;;;;;;2092852;28;20028;-91
2021/11/28 04:37:52;;;;;;;18.60;11.38;;;4.10;95.20;;;;;;2090383;28;20025;-90
2021/11/28 04:38:53;;;;;;;19.45;11.20;;;4.10;95.10;;;;;;2089270;28;20025;-91
2021/11/28 04:39:53;;;;;;;18.27;11.07;;;4.10;95.10;;;;;;2073310;28;20465;-90
2021/11/28 04:40:54;;;;;;;17.55;10.75;;;4.10;95.10;;;;;;2081049;28;20029;-91
2021/11/28 04:41:55;;;;;;;17.95;11.40;;;4.10;95.10;;;;;;2090167;28;20476;-90
2021/11/28 04:42:55;;;;;;;18.52;11.38;;;4.10;95.10;;;;;;2080949;28;20583;-90
2021/11/28 04:43:56;;;;;;;17.48;10.80;;;4.10;95.20;;;;;;2065116;28;20061;-90
2021/11/28 04:44:57;;;;;;;16.77;10.57;;;4.10;95.20;;;;;;2081175;28;20041;-90
2021/11/28 04:45:57;;;;;;;16.20;10.45;;;4.10;95.20;;;;;;2088108;28;20032;-90
2021/11/28 04:46:58;;;;;;;18.13;10.93;;;4.10;95.20;;;;;;2081301;28;20564;-90
2021/11/28 04:47:59;;;;;;;17.38;11.10;;;4.10;95.20;;;;;;2072849;28;20087;-90
2021/11/28 04:49:02;;;;;;;17.48;11.05;;;4.10;95.20;;;;;;2073311;28;20033;-90
2021/11/28 04:50:04;;;;;;;16.88;10.73;;;4.10;95.20;;;;;;2078688;28;20079;-90
2021/11/28 04:51:05;;;;;;;16.17;11.05;;;4.10;95.20;;;;;;2065487;28;20018;-90
2021/11/28 04:52:06;;;;;;;15.40;9.85;;;4.10;95.20;;;;;;2073170;28;20042;-90
2021/11/28 04:53:06;;;;;;;15.30;10.18;;;4.10;95.20;;;;;;2087495;28;20021;-90
2021/11/28 04:54:08;;;;;;;16.67;10.82;;;4.10;95.20;;;;;;2089399;28;20025;-90
2021/11/28 04:55:11;;;;;;;15.55;10.05;;;4.10;95.20;;;;;;2089632;28;20550;-90
2021/11/28 04:56:11;;;;;;;14.98;10.23;;;4.10;95.50;;;;;;2080198;28;20034;-90
2021/11/28 04:57:12;;;;;;;16.85;10.60;;;4.10;95.20;;;;;;2073448;28;20030;-91
2021/11/28 04:58:12;;;;;;;16.05;10.05;;;4.10;95.20;;;;;;2080109;28;20466;-91
2021/11/28 04:59:14;;;;;;;16.60;10.77;;;4.10;95.20;;;;;;2065207;28;20090;-91
2021/11/28 05:00:21;;;;;;;15.00;10.02;;;4.10;95.20;;;;;;2073230;28;20026;-91
2021/11/28 05:01:23;;;;;;;16.38;10.48;;;4.10;95.10;;;;;;2088506;28;20024;-91
2021/11/28 05:02:24;;;;;;;16.77;10.40;;;4.10;95.10;;;;;;2089469;28;20540;-91
2021/11/28 05:03:24;;;;;;;15.93;9.93;;;4.10;95.10;;;;;;2077510;28;20072;-91
2021/11/28 05:04:25;;;;;;;15.30;9.77;;;4.10;95.10;;;;;;2079481;28;20022;-90
2021/11/28 05:05:26;;;;;;;16.05;10.57;;;4.10;95.40;;;;;;2087755;28;20511;-90
2021/11/28 05:06:27;;;;;;;15.40;9.90;;;4.10;95.40;;;;;;2086660;28;20119;-90
2021/11/28 05:07:28;;;;;;;17.35;10.68;;;4.10;95.10;;;;;;2080818;28;20049;-89
2021/11/28 05:08:29;;;;;;;16.08;10.40;;;4.10;95.10;;;;;;2081417;28;20112;-91
2021/11/28 05:09:29;;;;;;;17.63;10.10;;;4.10;95.10;;;;;;2086424;28;20501;-90
2021/11/28 05:10:30;;;;;;;14.80;9.93;;;4.10;95.10;;;;;;2089083;28;20448;-89
2021/11/28 05:11:31;;;;;;;13.93;9.43;;;4.10;95.10;;;;;;2072879;28;22584;-90
2021/11/28 05:12:32;;;;;;;13.75;8.88;;;4.10;95.10;;;;;;2073339;28;20030;-90
2021/11/28 05:13:33;;;;;;;15.10;9.65;;;4.10;95.10;;;;;;2081349;28;20076;-89
2021/11/28 05:14:34;;;;;;;16.20;10.35;;;4.10;95.40;;;;;;2072345;28;20060;-89
2021/11/28 05:15:35;;;;;;;14.15;9.20;;;4.00;95.10;;;;;;2071581;28;20034;-90
2021/11/28 05:16:37;;;;;;;16.85;10.38;;;4.10;95.10;;;;;;2080389;28;20091;-90
2021/11/28 05:17:38;;;;;;;15.48;9.70;;;4.00;95.10;;;;;;2089541;28;20101;-89
2021/11/28 05:18:39;;;;;;;16.67;10.00;;;4.00;95.10;;;;;;2079977;28;20141;-90
2021/11/28 05:19:39;;;;;;;14.95;10.18;;;4.00;95.10;;;;;;2065174;28;20035;-89
2021/11/28 05:20:40;;;;;;;16.65;9.82;;;4.00;95.10;;;;;;2066187;28;20030;-89
2021/11/28 05:21:41;;;;;;;15.10;10.27;;;4.00;95.10;;;;;;2081135;28;20026;-90
2021/11/28 05:22:42;;;;;;;18.00;10.98;;;4.00;95.10;;;;;;2081938;28;20029;-90